NOZ425 ENCN-ENGM
Flight info
| Callsign | NOZ425 |
|---|---|
| Flight time | N/A |
| Altitude | 27000 |
| Route | VAVET DCT PIPEX DCT ULMUG DCT RIPAM |
| Aircraft | B38M/M-SDE1FGHILORVWXY/HB1 |
Departure
| Time | N/A |
|---|---|
| Airport | Kristiansand Airport (ENCN) |
Arrival
| Time | 2026-05-03 20:37 |
|---|---|
| Airport | Oslo-Gardermoen International Airport (ENGM) |
| Time | Latitude | Longitude | Altitude | Speed | Heading |
|---|---|---|---|---|---|
| 2026-05-03 20:15 | 59.15735 | 9.52216 | 26738 ft | 498 kts | 36° |
| 2026-05-03 20:15 | 59.18437 | 9.56407 | 26348 ft | 491 kts | 33° |
| 2026-05-03 20:15 | 59.21261 | 9.60147 | 25780 ft | 490 kts | 30° |
| 2026-05-03 20:15 | 59.24107 | 9.63821 | 25409 ft | 489 kts | 30° |
| 2026-05-03 20:16 | 59.26955 | 9.67488 | 24982 ft | 484 kts | 30° |
| 2026-05-03 20:16 | 59.29720 | 9.71052 | 24555 ft | 477 kts | 30° |
| 2026-05-03 20:16 | 59.32506 | 9.74484 | 24089 ft | 467 kts | 22° |
| 2026-05-03 20:16 | 59.35515 | 9.76554 | 23611 ft | 452 kts | 9° |
| 2026-05-03 20:17 | 59.38533 | 9.78176 | 23194 ft | 446 kts | 11° |
| 2026-05-03 20:17 | 59.41528 | 9.79832 | 22500 ft | 444 kts | 11° |
| 2026-05-03 20:17 | 59.44472 | 9.81461 | 21717 ft | 446 kts | 11° |
| 2026-05-03 20:17 | 59.47448 | 9.83111 | 21249 ft | 439 kts | 11° |
| 2026-05-03 20:18 | 59.50362 | 9.84729 | 20876 ft | 432 kts | 11° |
| 2026-05-03 20:18 | 59.53236 | 9.86329 | 20478 ft | 425 kts | 11° |
| 2026-05-03 20:18 | 59.56075 | 9.87911 | 20071 ft | 423 kts | 11° |
| 2026-05-03 20:18 | 59.58905 | 9.89492 | 19673 ft | 421 kts | 11° |
| 2026-05-03 20:19 | 59.61718 | 9.91065 | 19276 ft | 419 kts | 11° |
| 2026-05-03 20:19 | 59.64510 | 9.92630 | 18879 ft | 416 kts | 11° |
| 2026-05-03 20:19 | 59.67279 | 9.94184 | 18489 ft | 413 kts | 11° |
| 2026-05-03 20:19 | 59.70041 | 9.95737 | 18075 ft | 410 kts | 11° |
| 2026-05-03 20:20 | 59.72747 | 9.97262 | 17627 ft | 408 kts | 11° |
| 2026-05-03 20:20 | 59.75478 | 9.98803 | 17224 ft | 406 kts | 11° |
| 2026-05-03 20:20 | 59.78196 | 10.00339 | 16821 ft | 403 kts | 11° |
| 2026-05-03 20:20 | 59.80889 | 10.01865 | 16426 ft | 400 kts | 11° |
| 2026-05-03 20:21 | 59.83534 | 10.03364 | 16032 ft | 398 kts | 11° |
| 2026-05-03 20:21 | 59.86187 | 10.04872 | 15650 ft | 395 kts | 11° |
| 2026-05-03 20:21 | 59.88826 | 10.06373 | 15246 ft | 393 kts | 11° |
| 2026-05-03 20:21 | 59.91446 | 10.07867 | 14854 ft | 390 kts | 12° |
| 2026-05-03 20:22 | 59.94052 | 10.09354 | 14458 ft | 387 kts | 12° |
| 2026-05-03 20:22 | 59.96634 | 10.10831 | 14071 ft | 385 kts | 12° |
| 2026-05-03 20:22 | 59.99198 | 10.12300 | 13675 ft | 381 kts | 12° |
| 2026-05-03 20:22 | 60.01743 | 10.13759 | 13254 ft | 378 kts | 12° |
| 2026-05-03 20:23 | 60.04236 | 10.15191 | 12873 ft | 376 kts | 12° |
| 2026-05-03 20:23 | 60.06748 | 10.16637 | 12476 ft | 373 kts | 12° |
| 2026-05-03 20:23 | 60.09232 | 10.18069 | 12096 ft | 370 kts | 12° |
| 2026-05-03 20:23 | 60.11707 | 10.19497 | 11714 ft | 366 kts | 12° |
| 2026-05-03 20:24 | 60.14118 | 10.20892 | 11347 ft | 362 kts | 12° |
| 2026-05-03 20:24 | 60.16536 | 10.22291 | 10979 ft | 358 kts | 12° |
| 2026-05-03 20:24 | 60.18915 | 10.23672 | 10612 ft | 354 kts | 12° |
| 2026-05-03 20:24 | 60.21270 | 10.25039 | 10255 ft | 350 kts | 12° |
| 2026-05-03 20:25 | 60.23593 | 10.26390 | 9892 ft | 340 kts | 13° |
| 2026-05-03 20:25 | 60.25790 | 10.27671 | 9557 ft | 326 kts | 13° |
| 2026-05-03 20:25 | 60.27929 | 10.28918 | 9190 ft | 313 kts | 13° |
| 2026-05-03 20:25 | 60.29987 | 10.30121 | 8877 ft | 300 kts | 12° |
| 2026-05-03 20:26 | 60.31847 | 10.31735 | 8656 ft | 295 kts | 33° |
| 2026-05-03 20:26 | 60.33218 | 10.34811 | 8471 ft | 297 kts | 60° |
| 2026-05-03 20:26 | 60.34015 | 10.38673 | 8313 ft | 300 kts | 69° |
| 2026-05-03 20:26 | 60.34754 | 10.42619 | 8143 ft | 299 kts | 69° |
| 2026-05-03 20:27 | 60.35478 | 10.46533 | 7945 ft | 297 kts | 69° |
| 2026-05-03 20:27 | 60.36197 | 10.50452 | 7767 ft | 296 kts | 69° |
| 2026-05-03 20:27 | 60.36902 | 10.54313 | 7632 ft | 295 kts | 69° |
| 2026-05-03 20:27 | 60.37613 | 10.58216 | 7556 ft | 295 kts | 69° |
| 2026-05-03 20:28 | 60.38320 | 10.62118 | 7422 ft | 294 kts | 69° |
| 2026-05-03 20:28 | 60.39023 | 10.66000 | 7241 ft | 293 kts | 69° |
| 2026-05-03 20:28 | 60.39713 | 10.69819 | 7066 ft | 292 kts | 70° |
| 2026-05-03 20:28 | 60.40407 | 10.73671 | 6891 ft | 291 kts | 70° |
| 2026-05-03 20:29 | 60.41101 | 10.77526 | 6715 ft | 290 kts | 70° |
| 2026-05-03 20:29 | 60.41789 | 10.81363 | 6534 ft | 289 kts | 70° |
| 2026-05-03 20:29 | 60.42472 | 10.85175 | 6367 ft | 288 kts | 70° |
| 2026-05-03 20:29 | 60.43155 | 10.88992 | 6181 ft | 288 kts | 70° |
| 2026-05-03 20:30 | 60.43833 | 10.92792 | 5997 ft | 286 kts | 70° |
| 2026-05-03 20:30 | 60.44277 | 10.95288 | 5866 ft | 282 kts | 70° |
| 2026-05-03 20:30 | 60.45146 | 11.00175 | 5655 ft | 274 kts | 70° |
| 2026-05-03 20:30 | 60.45783 | 11.03769 | 5482 ft | 266 kts | 71° |
| 2026-05-03 20:31 | 60.46046 | 11.06166 | 5354 ft | 261 kts | 90° |
| 2026-05-03 20:31 | 60.45653 | 11.09623 | 5196 ft | 247 kts | 123° |
| 2026-05-03 20:31 | 60.44583 | 11.12230 | 5104 ft | 236 kts | 138° |
| 2026-05-03 20:31 | 60.43440 | 11.14549 | 4965 ft | 227 kts | 139° |
| 2026-05-03 20:32 | 60.42340 | 11.16753 | 4806 ft | 219 kts | 139° |
| 2026-05-03 20:32 | 60.41193 | 11.18695 | 4593 ft | 210 kts | 156° |
| 2026-05-03 20:32 | 60.39827 | 11.19365 | 4348 ft | 197 kts | 182° |
| 2026-05-03 20:32 | 60.38526 | 11.19029 | 4118 ft | 187 kts | 196° |
| 2026-05-03 20:33 | 60.37301 | 11.18307 | 3904 ft | 178 kts | 198° |
| 2026-05-03 20:33 | 60.36120 | 11.17600 | 3689 ft | 176 kts | 198° |
| 2026-05-03 20:33 | 60.34973 | 11.16926 | 3471 ft | 164 kts | 198° |
| 2026-05-03 20:33 | 60.33936 | 11.16317 | 3283 ft | 144 kts | 197° |
| 2026-05-03 20:34 | 60.33033 | 11.15792 | 3101 ft | 133 kts | 197° |
| 2026-05-03 20:34 | 60.32144 | 11.15274 | 2923 ft | 132 kts | 197° |
| 2026-05-03 20:34 | 60.31263 | 11.14761 | 2735 ft | 131 kts | 197° |
| 2026-05-03 20:34 | 60.30383 | 11.14250 | 2559 ft | 130 kts | 197° |
| 2026-05-03 20:35 | 60.29524 | 11.13751 | 2383 ft | 129 kts | 197° |
| 2026-05-03 20:35 | 60.28661 | 11.13251 | 2205 ft | 129 kts | 196° |
| 2026-05-03 20:35 | 60.27796 | 11.12748 | 2026 ft | 130 kts | 196° |
| 2026-05-03 20:35 | 60.26921 | 11.12241 | 1844 ft | 131 kts | 196° |
| 2026-05-03 20:36 | 60.26036 | 11.11729 | 1655 ft | 133 kts | 195° |
| 2026-05-03 20:36 | 60.25140 | 11.11209 | 1453 ft | 135 kts | 195° |
| 2026-05-03 20:36 | 60.24232 | 11.10687 | 1256 ft | 136 kts | 194° |
| 2026-05-03 20:36 | 60.23327 | 11.10150 | 1081 ft | 138 kts | 193° |
| 2026-05-03 20:37 | 60.22407 | 11.09622 | 886 ft | 136 kts | 193° |
| 2026-05-03 20:37 | 60.21492 | 11.09099 | 713 ft | 136 kts | 193° |
| 2026-05-03 20:37 | 60.20672 | 11.08633 | 680 ft | 100 kts | 197° |
| 2026-05-03 20:37 | 60.20232 | 11.08373 | 678 ft | 43 kts | 193° |
| 2026-05-03 20:38 | 60.20024 | 11.08302 | 675 ft | 24 kts | 180° |
| 2026-05-03 20:38 | 60.19906 | 11.08390 | 676 ft | 17 kts | 124° |
| 2026-05-03 20:38 | 60.19875 | 11.08540 | 675 ft | 7 kts | 123° |
| 2026-05-03 20:38 | 60.19862 | 11.08562 | 677 ft | 3 kts | 127° |
| 2026-05-03 20:39 | 60.19864 | 11.08617 | 680 ft | 7 kts | 85° |
| 2026-05-03 20:39 | 60.19805 | 11.08703 | 677 ft | 14 kts | 162° |
| 2026-05-03 20:39 | 60.19755 | 11.08887 | 680 ft | 17 kts | 106° |
| 2026-05-03 20:39 | 60.19722 | 11.09114 | 677 ft | 17 kts | 106° |
| 2026-05-03 20:40 | 60.19689 | 11.09346 | 680 ft | 18 kts | 106° |
| 2026-05-03 20:40 | 60.19653 | 11.09602 | 684 ft | 20 kts | 105° |
| 2026-05-03 20:40 | 60.19612 | 11.09741 | 681 ft | 11 kts | 142° |
| 2026-05-03 20:40 | 60.19560 | 11.09758 | 684 ft | 6 kts | 195° |
| 2026-05-03 20:41 | 60.19525 | 11.09739 | 684 ft | 2 kts | 194° |
| 2026-05-03 20:41 | 60.19523 | 11.09738 | 684 ft | 0 kts | 194° |